Terminal Aerodrome Forecast
Issued by NWS

Home | Current Version | Previous Version | Text Only | Print | Product List | Glossary On
Versions: 1 2 3 4 5 6 7 8 9 10 11 12 13 14 15 16 17 18
000
FTUS46 KMFR 301100
TAFLMT
TAF
KLMT 301138Z 3012/3112 VRB02KT 3/4SM BR FEW002 BKN150
      TEMPO 3012/3014 1/2SM FG VV002
     FM301400 15006KT P6SM BKN150
     FM302000 18011KT P6SM SCT150 BKN250
     FM310700 19005KT P6SM VCSH OVC050=

USA.gov is the U.S. government's official web portal to all federal, state and local government web resources and services.